Time;durP1;ratioP1;P1;durP2;ratioP2;P2;SDS_P1;SDS_P2;PMS_P1;PMS_P2;Temp;Humidity;BMP_temperature;BMP_pressure;BME280_temperature;BME280_humidity;BME280_pressure;Samples;Min_cycle;Max_cycle;Signal;HPM_P1;HPM_P2
2023/08/27 00:00:14;;;;;;;9.07;7.97;;;;;;;-146.25;100.00;52246.53;2081179;28;20121;-65
2023/08/27 00:01:16;;;;;;;9.82;8.93;;;;;;;-146.25;100.00;52252.63;2079848;28;45364;-66
2023/08/27 00:02:18;;;;;;;10.85;9.75;;;;;;;-146.25;100.00;52242.50;2080535;28;29765;-65
2023/08/27 00:03:22;;;;;;;10.10;9.10;;;;;;;-146.25;100.00;52295.19;2080556;28;20308;-66
2023/08/27 00:04:25;;;;;;;11.00;9.90;;;;;;;-146.25;100.00;52297.22;2080463;28;38192;-65
2023/08/27 00:05:26;;;;;;;10.45;9.55;;;;;;;-146.25;100.00;52254.66;2081053;28;20058;-65
2023/08/27 00:06:31;;;;;;;12.32;10.40;;;;;;;-146.25;100.00;52232.34;2080694;28;35344;-65
2023/08/27 00:07:33;;;;;;;9.80;8.80;;;;;;;-146.25;100.00;52232.34;2080576;28;20132;-65
2023/08/27 00:08:35;;;;;;;11.75;10.65;;;;;;;-146.25;100.00;52256.69;2080267;28;36376;-66
2023/08/27 00:09:39;;;;;;;12.15;10.95;;;;;;;-146.25;100.00;52248.56;2088416;28;29612;-65
2023/08/27 00:10:44;;;;;;;11.02;9.98;;;;;;;-146.25;100.00;52281.00;2079322;28;28419;-65
2023/08/27 00:11:45;;;;;;;9.88;8.95;;;;;;;-146.25;100.00;52258.72;2079732;28;34201;-65
2023/08/27 00:12:47;;;;;;;11.55;10.35;;;;;;;-146.25;100.00;52311.44;2080728;28;34940;-66
2023/08/27 00:13:49;;;;;;;10.18;9.15;;;;;;;-146.25;100.00;52321.56;2080388;28;35676;-66
2023/08/27 00:14:51;;;;;;;10.80;9.80;;;;;;;-146.25;100.00;52272.91;2080664;28;37142;-66
2023/08/27 00:15:53;;;;;;;12.35;11.13;;;;;;;-146.25;100.00;52250.59;2079776;28;35829;-65
2023/08/27 00:16:55;;;;;;;12.32;11.13;;;;;;;-146.25;100.00;52295.19;2079617;28;39518;-66
2023/08/27 00:18:00;;;;;;;13.30;11.38;;;;;;;-146.25;100.00;52254.66;2081142;28;20085;-65
2023/08/27 00:19:03;;;;;;;12.05;10.95;;;;;;;-146.25;100.00;52266.81;2080133;28;31555;-65
2023/08/27 00:20:10;;;;;;;9.75;8.95;;;;;;;-146.25;100.00;52315.47;2080783;28;36475;-65
2023/08/27 00:21:12;;;;;;;10.93;9.93;;;;;;;-146.25;100.00;52283.03;2088947;28;20926;-65
2023/08/27 00:22:15;;;;;;;8.80;8.00;;;;;;;-146.25;100.00;52260.72;2087788;28;36867;-65
2023/08/27 00:23:18;;;;;;;9.90;9.02;;;;;;;-146.25;100.00;52260.72;2080555;28;30529;-65
2023/08/27 00:24:20;;;;;;;10.38;9.38;;;;;;;-146.25;100.00;52299.25;2081131;28;20091;-65
2023/08/27 00:25:22;;;;;;;10.65;9.65;;;;;;;-146.25;100.00;52266.81;2080576;28;35499;-65
2023/08/27 00:26:24;;;;;;;10.68;9.70;;;;;;;-146.25;100.00;52299.25;2080319;28;34647;-65
2023/08/27 00:27:26;;;;;;;9.85;8.95;;;;;;;-146.25;100.00;52321.56;2080887;28;20038;-65
2023/08/27 00:28:29;;;;;;;11.10;10.07;;;;;;;-146.25;100.00;52323.59;2080365;28;21048;-65
2023/08/27 00:29:34;;;;;;;12.23;10.98;;;;;;;-146.25;100.00;52246.53;2071901;28;29340;-65
2023/08/27 00:30:36;;;;;;;11.32;10.32;;;;;;;-146.25;100.00;52242.50;2072815;28;20140;-65
2023/08/27 00:31:38;;;;;;;12.05;10.95;;;;;;;-146.25;100.00;52274.94;2071977;28;20073;-65
2023/08/27 00:32:42;;;;;;;12.13;11.02;;;;;;;-146.25;100.00;52258.72;2071940;28;20054;-65
2023/08/27 00:33:44;;;;;;;11.75;10.65;;;;;;;-146.25;100.00;52285.06;2080132;28;20045;-65
2023/08/27 00:34:46;;;;;;;12.18;11.07;;;;;;;-146.25;100.00;52262.75;2079937;28;20206;-64
2023/08/27 00:35:53;;;;;;;12.93;11.73;;;;;;;-146.25;100.00;52246.53;2080351;28;20966;-65
2023/08/27 00:36:55;;;;;;;13.57;12.18;;;;;;;-146.25;100.00;52238.44;2080296;28;20803;-65
2023/08/27 00:37:59;;;;;;;13.40;12.23;;;;;;;-146.25;100.00;52307.38;2079968;28;20045;-65
2023/08/27 00:39:02;;;;;;;13.23;11.85;;;;;;;-146.25;100.00;52252.63;2079914;28;20053;-65
2023/08/27 00:40:04;;;;;;;14.52;13.15;;;;;;;-146.25;100.00;52285.06;2080247;28;20915;-65
2023/08/27 00:41:09;;;;;;;15.68;12.45;;;;;;;-146.25;100.00;52283.03;2079354;28;29966;-65
2023/08/27 00:42:10;;;;;;;13.88;12.57;;;;;;;-146.25;100.00;52262.75;2080586;28;30519;-65
2023/08/27 00:43:15;;;;;;;13.13;11.82;;;;;;;-146.25;100.00;52250.59;2071963;28;20116;-64
2023/08/27 00:44:17;;;;;;;13.80;12.40;;;;;;;-146.25;100.00;52266.81;2080655;28;25483;-65
2023/08/27 00:45:21;;;;;;;13.70;12.32;;;;;;;-146.25;100.00;52274.94;2087733;28;36090;-66
2023/08/27 00:46:23;;;;;;;14.77;13.23;;;;;;;-146.25;100.00;52283.03;2088408;28;20049;-66
2023/08/27 00:47:26;;;;;;;13.68;12.38;;;;;;;-146.25;100.00;52246.53;2088187;28;20045;-65
2023/08/27 00:48:28;;;;;;;13.43;12.02;;;;;;;-146.25;100.00;52301.28;2080246;28;30968;-66
2023/08/27 00:49:30;;;;;;;14.88;13.38;;;;;;;-146.25;100.00;52287.09;2079896;28;20101;-65
2023/08/27 00:50:35;;;;;;;14.10;12.70;;;;;;;-146.25;100.00;52252.63;2080004;28;33044;-65
2023/08/27 00:51:37;;;;;;;14.35;12.98;;;;;;;-146.25;100.00;52254.66;2079851;28;20898;-66
2023/08/27 00:52:39;;;;;;;12.88;11.55;;;;;;;-146.25;100.00;52283.03;2080676;28;20207;-66
2023/08/27 00:53:43;;;;;;;12.77;11.45;;;;;;;-146.25;100.00;52266.81;2087833;28;20160;-65
2023/08/27 00:54:45;;;;;;;14.40;13.00;;;;;;;-146.25;100.00;52274.94;2080640;28;28640;-66
2023/08/27 00:55:51;;;;;;;13.15;11.98;;;;;;;-146.25;100.00;52250.59;2080125;28;20077;-66
2023/08/27 00:56:54;;;;;;;12.40;11.20;;;;;;;-146.25;100.00;52260.72;2081114;28;20081;-63
2023/08/27 00:57:56;;;;;;;12.57;11.38;;;;;;;-146.25;100.00;52258.72;2079994;28;20961;-64
2023/08/27 00:58:58;;;;;;;13.10;11.90;;;;;;;-146.25;100.00;52246.53;2072115;28;20100;-63
2023/08/27 00:59:59;;;;;;;13.57;12.38;;;;;;;-146.25;100.00;52281.00;2080045;28;20096;-66
2023/08/27 01:01:04;;;;;;;14.23;12.77;;;;;;;-146.25;100.00;52278.97;2071592;28;28182;-66
2023/08/27 01:02:06;;;;;;;13.88;12.57;;;;;;;-146.25;100.00;52287.09;2072049;28;30444;-66
2023/08/27 01:03:08;;;;;;;14.35;12.80;;;;;;;-146.25;100.00;52268.84;2072224;28;27454;-65
2023/08/27 01:04:10;;;;;;;13.70;12.23;;;;;;;-146.25;100.00;52270.88;2080527;28;20131;-65
2023/08/27 01:05:12;;;;;;;13.10;11.90;;;;;;;-146.25;100.00;52283.03;2088157;28;20053;-66
2023/08/27 01:06:14;;;;;;;13.10;12.00;;;;;;;-146.25;100.00;52270.88;2080161;28;20267;-65
2023/08/27 01:07:50;;;;;;;14.52;13.13;;;;;;;-146.25;100.00;52258.72;2087611;28;31664;-65
2023/08/27 01:09:25;;;;;;;14.10;12.70;;;;;;;-146.25;100.00;52258.72;2083309;28;28892;-66
2023/08/27 01:11:09;;;;;;;12.50;11.30;;;;;;;-146.25;100.00;52266.81;2079628;28;29345;-65
2023/08/27 01:12:52;;;;;;;13.02;10.90;;;;;;;-146.25;100.00;52248.56;2080130;28;25719;-66
2023/08/27 01:14:03;;;;;;;12.57;11.15;;;;;;;-146.25;100.00;52262.75;2069763;28;20153;-64
2023/08/27 01:15:07;;;;;;;12.90;11.50;;;;;;;-146.25;100.00;52264.78;2081648;28;20168;-65
2023/08/27 01:16:11;;;;;;;13.32;12.02;;;;;;;-146.25;100.00;52254.66;2071987;28;20055;-65
2023/08/27 01:17:16;;;;;;;12.52;11.32;;;;;;;-146.25;100.00;52295.19;2064560;28;20459;-66
2023/08/27 01:18:18;;;;;;;14.27;12.60;;;;;;;-146.25;100.00;52268.84;2071895;28;36026;-65
2023/08/27 01:19:22;;;;;;;13.10;11.80;;;;;;;-146.25;100.00;52268.84;2071669;28;20215;-65
2023/08/27 01:20:23;;;;;;;13.43;12.02;;;;;;;-146.25;100.00;52274.94;2071984;28;20096;-65
2023/08/27 01:21:26;;;;;;;12.18;10.98;;;;;;;-146.25;100.00;52281.00;2080119;28;20038;-64
2023/08/27 01:22:29;;;;;;;13.35;11.95;;;;;;;-146.25;100.00;52289.13;2088216;28;20863;-65
2023/08/27 01:23:31;;;;;;;12.55;11.27;;;;;;;-146.25;100.00;52268.84;2088065;28;25405;-65
2023/08/27 01:24:33;;;;;;;12.88;11.57;;;;;;;-146.25;100.00;52272.91;2080013;28;21114;-65
2023/08/27 01:25:49;;;;;;;13.70;12.40;;;;;;;-146.25;100.00;52224.25;2071722;28;20049;-65
2023/08/27 01:26:55;;;;;;;13.32;12.07;;;;;;;-146.25;100.00;52299.25;2073412;28;27135;-65
2023/08/27 01:28:32;;;;;;;13.73;12.43;;;;;;;-146.25;100.00;52252.63;2080463;28;20121;-65
2023/08/27 01:30:06;;;;;;;13.18;11.73;;;;;;;-146.25;100.00;52276.97;2076567;28;30093;-65
2023/08/27 01:31:13;;;;;;;13.40;12.07;;;;;;;-146.25;100.00;52266.81;2078521;28;28646;-65
2023/08/27 01:32:28;;;;;;;14.10;12.65;;;;;;;-146.25;100.00;52297.22;2068029;28;35394;-65
2023/08/27 01:33:31;;;;;;;14.90;13.20;;;;;;;-146.25;100.00;52234.38;2067073;28;31331;-66
2023/08/27 01:34:34;;;;;;;15.05;13.65;;;;;;;-146.25;100.00;52281.00;2071462;28;35517;-65
2023/08/27 01:35:36;;;;;;;14.07;12.75;;;;;;;-146.25;100.00;52250.59;2071416;28;34320;-66
2023/08/27 01:36:39;;;;;;;13.98;12.55;;;;;;;-146.25;100.00;52283.03;2080151;28;32017;-65
2023/08/27 01:37:41;;;;;;;11.45;10.35;;;;;;;-146.25;100.00;52303.31;2079278;28;28239;-65
2023/08/27 01:38:43;;;;;;;10.43;9.43;;;;;;;-146.25;100.00;52291.16;2080080;28;20877;-65
2023/08/27 01:39:45;;;;;;;12.38;11.25;;;;;;;-146.25;100.00;52254.66;2087445;28;32228;-65
2023/08/27 01:40:47;;;;;;;11.02;10.13;;;;;;;-146.25;100.00;52244.50;2080019;28;26144;-65
2023/08/27 01:41:51;;;;;;;13.05;11.65;;;;;;;-146.25;100.00;52250.59;2087722;28;27764;-65
2023/08/27 01:42:53;;;;;;;12.95;11.75;;;;;;;-146.25;100.00;52313.44;2079392;28;32566;-65
2023/08/27 01:43:55;;;;;;;12.68;11.38;;;;;;;-146.25;100.00;52254.66;2079653;28;20057;-65
2023/08/27 01:44:58;;;;;;;13.63;12.32;;;;;;;-146.25;100.00;52295.19;2080103;28;20104;-65
2023/08/27 01:46:03;;;;;;;13.05;11.48;;;;;;;-146.25;100.00;52266.81;2079848;28;20082;-66
2023/08/27 01:47:06;;;;;;;12.60;11.40;;;;;;;-146.25;100.00;52303.31;2080491;28;20835;-65
2023/08/27 01:48:08;;;;;;;10.90;9.93;;;;;;;-146.25;100.00;52307.38;2079884;28;20037;-66
2023/08/27 01:49:10;;;;;;;13.27;11.57;;;;;;;-146.25;100.00;52264.78;2079859;28;20177;-65
2023/08/27 01:50:11;;;;;;;12.70;11.50;;;;;;;-146.25;100.00;52283.03;2079761;28;20127;-66
2023/08/27 01:51:15;;;;;;;10.45;9.55;;;;;;;-146.25;100.00;52295.19;2079872;28;21061;-65
2023/08/27 01:52:19;;;;;;;9.48;8.57;;;;;;;-146.25;100.00;52238.44;2079636;28;20045;-65
2023/08/27 01:53:23;;;;;;;10.77;9.77;;;;;;;-146.25;100.00;52276.97;2079718;28;36423;-66
2023/08/27 01:54:25;;;;;;;10.63;8.48;;;;;;;-146.25;100.00;52299.25;2079559;28;21038;-65
2023/08/27 01:55:26;;;;;;;9.63;7.65;;;;;;;-146.25;100.00;52274.94;2079579;28;21013;-64
2023/08/27 01:56:28;;;;;;;9.38;8.48;;;;;;;-146.25;100.00;52256.69;2071327;28;20149;-66
2023/08/27 01:57:30;;;;;;;9.57;8.65;;;;;;;-146.25;100.00;52260.72;2071748;28;20161;-65
2023/08/27 01:58:32;;;;;;;11.75;10.48;;;;;;;-146.25;100.00;52268.84;2079916;28;20120;-66
2023/08/27 01:59:36;;;;;;;10.93;9.93;;;;;;;-146.25;100.00;52301.28;2079840;28;20134;-66
2023/08/27 02:00:38;;;;;;;9.57;8.52;;;;;;;-146.25;100.00;52236.41;2079065;28;20038;-65
2023/08/27 02:01:39;;;;;;;7.45;6.80;;;;;;;-146.25;100.00;52283.03;2080576;28;20908;-65
2023/08/27 02:02:42;;;;;;;8.93;8.02;;;;;;;-146.25;100.00;52274.94;2079329;28;20099;-66
2023/08/27 02:03:44;;;;;;;10.23;9.32;;;;;;;-146.25;100.00;52299.25;2071868;28;20219;-65
2023/08/27 02:04:46;;;;;;;8.52;7.82;;;;;;;-146.25;100.00;52311.44;2079579;28;20192;-65
2023/08/27 02:05:50;;;;;;;8.70;7.93;;;;;;;-146.25;100.00;52270.88;2088099;28;20186;-65
2023/08/27 02:06:53;;;;;;;9.50;8.60;;;;;;;-146.25;100.00;52285.06;2079521;28;21019;-65
2023/08/27 02:07:55;;;;;;;9.57;8.68;;;;;;;-146.25;100.00;52319.53;2070928;28;29717;-65
2023/08/27 02:08:56;;;;;;;8.35;7.60;;;;;;;-146.25;100.00;52278.97;2079420;28;21469;-65
2023/08/27 02:10:01;;;;;;;8.95;8.15;;;;;;;-146.25;100.00;52248.56;2070845;28;32835;-65
2023/08/27 02:11:03;;;;;;;8.82;8.02;;;;;;;-146.25;100.00;52301.28;2072196;28;23926;-65
2023/08/27 02:12:06;;;;;;;9.80;9.00;;;;;;;-146.25;100.00;52293.19;2079483;28;20221;-65
2023/08/27 02:13:09;;;;;;;11.00;9.98;;;;;;;-146.25;100.00;52274.94;2071811;28;20042;-65
2023/08/27 02:14:11;;;;;;;10.50;9.50;;;;;;;-146.25;100.00;52299.25;2079848;28;20148;-65
2023/08/27 02:15:12;;;;;;;10.70;9.70;;;;;;;-146.25;100.00;52266.81;2088134;28;20084;-65
2023/08/27 02:16:14;;;;;;;10.95;9.90;;;;;;;-146.25;100.00;52258.72;2079333;28;32052;-65
2023/08/27 02:17:16;;;;;;;11.23;10.23;;;;;;;-146.25;100.00;52287.09;2071759;28;20135;-65
2023/08/27 02:18:18;;;;;;;12.15;10.95;;;;;;;-146.25;100.00;52301.28;2071707;28;20121;-65
2023/08/27 02:19:22;;;;;;;9.70;8.88;;;;;;;-146.25;100.00;52305.34;2071426;28;20136;-65
2023/08/27 02:20:24;;;;;;;10.30;9.40;;;;;;;-146.25;100.00;52301.28;2079503;28;22326;-66
2023/08/27 02:21:26;;;;;;;10.80;9.80;;;;;;;-146.25;100.00;52311.44;2087669;28;20164;-65
2023/08/27 02:22:28;;;;;;;10.65;9.60;;;;;;;-146.25;100.00;52311.44;2080176;28;20211;-66
2023/08/27 02:23:30;;;;;;;10.77;9.85;;;;;;;-146.25;100.00;52264.78;2071426;28;21034;-65
2023/08/27 02:24:32;;;;;;;10.90;9.82;;;;;;;-146.25;100.00;52295.19;2071766;28;20813;-65
2023/08/27 02:25:33;;;;;;;10.18;8.70;;;;;;;-146.25;100.00;52321.56;2071563;28;20039;-63
2023/08/27 02:26:35;;;;;;;10.25;9.25;;;;;;;-146.25;100.00;52258.72;2079113;28;30210;-64
2023/08/27 02:27:37;;;;;;;9.25;7.50;;;;;;;-146.25;100.00;52238.44;2079501;28;21089;-66
2023/08/27 02:28:39;;;;;;;10.38;9.45;;;;;;;-146.25;100.00;52276.97;2079888;28;21069;-65
2023/08/27 02:29:46;;;;;;;9.85;8.75;;;;;;;-146.25;100.00;52274.94;2080363;28;20097;-65
2023/08/27 02:30:54;;;;;;;8.27;7.57;;;;;;;-146.25;100.00;52256.69;2079472;28;28327;-65
2023/08/27 02:31:55;;;;;;;8.02;7.30;;;;;;;-146.25;100.00;52262.75;2080034;28;20857;-64
2023/08/27 02:32:57;;;;;;;9.57;8.73;;;;;;;-146.25;100.00;52301.28;2080182;28;30282;-66
2023/08/27 02:33:59;;;;;;;9.30;8.48;;;;;;;-146.25;100.00;52285.06;2079393;28;20251;-65
2023/08/27 02:35:02;;;;;;;9.93;8.98;;;;;;;-146.25;100.00;52295.19;2079348;28;30386;-65
2023/08/27 02:36:04;;;;;;;10.48;9.48;;;;;;;-146.25;100.00;52266.81;2087334;28;20044;-65
2023/08/27 02:37:06;;;;;;;10.45;8.88;;;;;;;-146.25;100.00;52325.63;2087249;28;21411;-65
2023/08/27 02:38:09;;;;;;;12.20;11.00;;;;;;;-146.25;100.00;52301.28;2079690;28;21005;-65
2023/08/27 02:39:12;;;;;;;10.05;8.30;;;;;;;-146.25;100.00;52281.00;2071337;28;20113;-66
2023/08/27 02:40:16;;;;;;;10.43;9.35;;;;;;;-146.25;100.00;52313.44;2079024;28;35523;-65
2023/08/27 02:41:19;;;;;;;11.93;10.40;;;;;;;-146.25;100.00;52295.19;2079474;28;21141;-65
2023/08/27 02:42:20;;;;;;;10.02;9.02;;;;;;;-146.25;100.00;52295.19;2079479;28;20530;-65
2023/08/27 02:43:22;;;;;;;8.85;8.05;;;;;;;-146.25;100.00;52303.31;2079555;28;20200;-65
2023/08/27 02:44:24;;;;;;;10.48;9.48;;;;;;;-146.25;100.00;52287.09;2079571;28;20050;-65
2023/08/27 02:45:27;;;;;;;11.48;10.38;;;;;;;-146.25;100.00;52246.53;2079062;28;20045;-65
2023/08/27 02:46:29;;;;;;;10.43;9.52;;;;;;;-146.25;100.00;52307.38;2079475;28;20191;-65
2023/08/27 02:47:31;;;;;;;11.18;9.75;;;;;;;-146.25;100.00;52274.94;2079503;28;20054;-65
2023/08/27 02:48:33;;;;;;;10.88;9.98;;;;;;;-146.25;100.00;52305.34;2087787;28;20037;-65
2023/08/27 02:49:35;;;;;;;10.45;9.43;;;;;;;-146.25;100.00;52321.56;2079342;28;25506;-65
2023/08/27 02:50:39;;;;;;;10.32;9.32;;;;;;;-146.25;100.00;52291.16;2079144;28;20046;-65
2023/08/27 02:51:41;;;;;;;8.70;7.97;;;;;;;-146.25;100.00;52291.16;2079257;28;20211;-65
2023/08/27 02:52:43;;;;;;;11.20;10.15;;;;;;;-146.25;100.00;52309.41;2078619;28;32958;-65
2023/08/27 02:53:50;;;;;;;11.70;10.60;;;;;;;-146.25;100.00;52299.25;2079293;28;26825;-65
2023/08/27 02:54:55;;;;;;;11.70;9.73;;;;;;;-146.25;100.00;52291.16;2079834;28;20050;-65
2023/08/27 02:55:57;;;;;;;11.05;10.02;;;;;;;-146.25;100.00;52317.50;2079132;28;20054;-65
2023/08/27 02:56:59;;;;;;;11.90;10.70;;;;;;;-146.25;100.00;52295.19;2079069;28;20893;-65
2023/08/27 02:58:01;;;;;;;11.68;10.43;;;;;;;-146.25;100.00;52272.91;2071402;28;20169;-65
2023/08/27 02:59:06;;;;;;;12.05;10.90;;;;;;;-146.25;100.00;52276.97;2071394;28;20180;-66
2023/08/27 03:00:09;;;;;;;12.90;11.70;;;;;;;-146.25;100.00;52285.06;2079752;28;20045;-65
2023/08/27 03:01:17;;;;;;;13.30;12.05;;;;;;;-146.25;100.00;52311.44;2079417;28;20038;-65
2023/08/27 03:02:19;;;;;;;13.55;12.25;;;;;;;-146.25;100.00;52285.06;2079483;28;20049;-65
2023/08/27 03:03:21;;;;;;;14.38;12.98;;;;;;;-146.25;100.00;52289.13;2078899;28;20834;-65
2023/08/27 03:04:23;;;;;;;12.50;11.15;;;;;;;-146.25;100.00;52272.91;2071386;28;20099;-66
2023/08/27 03:05:25;;;;;;;12.18;10.98;;;;;;;-146.25;100.00;52283.03;2079052;28;33204;-66
2023/08/27 03:06:27;;;;;;;11.23;9.80;;;;;;;-146.25;100.00;52299.25;2079521;28;20833;-66
2023/08/27 03:07:32;;;;;;;11.38;10.18;;;;;;;-146.25;100.00;52293.19;2079490;28;20046;-66
2023/08/27 03:08:34;;;;;;;10.63;9.63;;;;;;;-146.25;100.00;52303.31;2079627;28;20164;-66
2023/08/27 03:09:35;;;;;;;9.98;8.98;;;;;;;-146.25;100.00;52270.88;2079338;28;20054;-66
2023/08/27 03:10:37;;;;;;;12.40;11.20;;;;;;;-146.25;100.00;52317.50;2079142;28;21060;-65
2023/08/27 03:11:39;;;;;;;13.30;11.85;;;;;;;-146.25;100.00;52311.44;2079160;28;20057;-65
2023/08/27 03:12:41;;;;;;;12.98;11.77;;;;;;;-146.25;100.00;52305.34;2079484;28;20096;-66
2023/08/27 03:13:43;;;;;;;13.30;12.02;;;;;;;-146.25;100.00;52293.19;2079293;28;20779;-65
2023/08/27 03:14:44;;;;;;;14.30;12.90;;;;;;;-146.25;100.00;52272.91;2079412;28;20046;-64
2023/08/27 03:15:46;;;;;;;12.68;11.48;;;;;;;-146.25;100.00;52297.22;2079087;28;20045;-64
2023/08/27 03:16:48;;;;;;;15.30;13.90;;;;;;;-146.25;100.00;52258.72;2079126;28;29682;-65
2023/08/27 03:17:50;;;;;;;13.63;12.23;;;;;;;-146.25;100.00;52297.22;2079326;28;20911;-65
2023/08/27 03:18:52;;;;;;;12.68;10.80;;;;;;;-146.25;100.00;52274.94;2079296;28;28319;-65
2023/08/27 03:19:54;;;;;;;13.45;12.07;;;;;;;-146.25;100.00;52313.44;2079135;28;20911;-65
2023/08/27 03:20:58;;;;;;;14.13;12.73;;;;;;;-146.25;100.00;52321.56;2079522;28;20241;-65
2023/08/27 03:22:02;;;;;;;15.10;13.70;;;;;;;-146.25;100.00;52303.31;2079662;28;32601;-65
2023/08/27 03:23:04;;;;;;;16.73;15.13;;;;;;;-146.25;100.00;52260.72;2087497;28;20846;-65
2023/08/27 03:24:07;;;;;;;16.50;14.80;;;;;;;-146.25;100.00;52311.44;2087572;28;20041;-65
2023/08/27 03:25:13;;;;;;;17.30;14.55;;;;;;;-146.25;100.00;52356.03;2087576;28;20045;-65
2023/08/27 03:26:14;;;;;;;14.60;12.65;;;;;;;-146.25;100.00;52319.53;2078562;28;31219;-65
2023/08/27 03:27:16;;;;;;;15.30;13.50;;;;;;;-146.25;100.00;52276.97;2071203;28;20981;-65
2023/08/27 03:28:21;;;;;;;15.05;13.25;;;;;;;-146.25;100.00;52289.13;2071208;28;20890;-65
2023/08/27 03:29:27;;;;;;;15.70;14.20;;;;;;;-146.25;100.00;52281.00;2079265;28;20969;-65
2023/08/27 03:30:29;;;;;;;13.15;11.95;;;;;;;-146.25;100.00;52325.63;2078808;28;35823;-65
2023/08/27 03:31:31;;;;;;;13.38;11.98;;;;;;;-146.25;100.00;52281.00;2079170;28;20100;-65
2023/08/27 03:32:33;;;;;;;14.43;12.95;;;;;;;-146.25;100.00;52260.72;2078835;28;24825;-65
2023/08/27 03:33:36;;;;;;;13.93;12.48;;;;;;;-146.25;100.00;52309.41;2080142;28;20045;-65
2023/08/27 03:34:39;;;;;;;15.00;13.15;;;;;;;-146.25;100.00;52323.59;2079977;28;20053;-65
2023/08/27 03:35:40;;;;;;;13.68;11.32;;;;;;;-146.25;100.00;52313.44;2079487;28;25480;-65
2023/08/27 03:36:42;;;;;;;13.02;11.73;;;;;;;-146.25;100.00;52266.81;2078825;28;20045;-65
2023/08/27 03:37:44;;;;;;;14.07;12.68;;;;;;;-146.25;100.00;52270.88;2079369;28;20120;-65
2023/08/27 03:38:46;;;;;;;13.30;11.98;;;;;;;-146.25;100.00;52317.50;2079034;28;20922;-66
2023/08/27 03:39:50;;;;;;;15.13;13.70;;;;;;;-146.25;100.00;52301.28;2079339;28;20136;-65
2023/08/27 03:40:53;;;;;;;16.30;14.65;;;;;;;-146.25;100.00;52305.34;2079160;28;26233;-65
2023/08/27 03:41:54;;;;;;;15.88;14.32;;;;;;;-146.25;100.00;52297.22;2087127;28;20053;-65
2023/08/27 03:42:56;;;;;;;16.30;14.70;;;;;;;-146.25;100.00;52299.25;2079192;28;20899;-65
2023/08/27 03:43:59;;;;;;;18.52;15.38;;;;;;;-146.25;100.00;52258.72;2079308;28;20161;-66
2023/08/27 03:45:01;;;;;;;16.17;14.55;;;;;;;-146.25;100.00;52281.00;2079406;28;20049;-65
2023/08/27 03:46:03;;;;;;;19.15;17.15;;;;;;;-146.25;100.00;52238.44;2079327;28;20149;-66
2023/08/27 03:47:05;;;;;;;17.63;15.82;;;;;;;-146.25;100.00;52272.91;2087258;28;20135;-66
2023/08/27 03:48:09;;;;;;;18.33;15.88;;;;;;;-146.25;100.00;52307.38;2079337;28;21103;-65
2023/08/27 03:49:13;;;;;;;19.92;17.92;;;;;;;-146.25;100.00;52291.16;2071094;28;20854;-66
2023/08/27 03:50:15;;;;;;;18.90;16.80;;;;;;;-146.25;100.00;52323.59;2071480;28;20828;-66
2023/08/27 03:51:20;;;;;;;22.70;18.30;;;;;;;-146.25;100.00;52299.25;2079183;28;20867;-65
2023/08/27 03:52:21;;;;;;;18.05;16.13;;;;;;;-146.25;100.00;52307.38;2086719;28;25622;-66
2023/08/27 03:53:23;;;;;;;17.83;15.88;;;;;;;-146.25;100.00;52319.53;2087446;28;20927;-66
2023/08/27 03:54:27;;;;;;;17.05;15.40;;;;;;;-146.25;100.00;52283.03;2079366;28;20140;-66
2023/08/27 03:55:29;;;;;;;18.20;16.30;;;;;;;-146.25;100.00;52248.56;2079026;28;20176;-65
2023/08/27 03:56:31;;;;;;;18.50;15.85;;;;;;;-146.25;100.00;52303.31;2079993;28;20091;-66
2023/08/27 03:57:33;;;;;;;19.15;17.13;;;;;;;-146.25;100.00;52313.44;2088439;28;20045;-67
2023/08/27 03:58:35;;;;;;;19.67;17.67;;;;;;;-146.25;100.00;52349.94;2072008;28;20050;-66
2023/08/27 03:59:37;;;;;;;19.50;17.27;;;;;;;-146.25;100.00;52297.22;2072502;28;20919;-64
2023/08/27 04:00:41;;;;;;;18.83;16.85;;;;;;;-146.25;100.00;52299.25;2072374;28;20773;-65
2023/08/27 04:01:43;;;;;;;17.70;15.25;;;;;;;-146.25;100.00;52293.19;2072116;28;30444;-66
2023/08/27 04:02:48;;;;;;;20.17;17.38;;;;;;;-146.25;100.00;52281.00;2079842;28;20049;-66
2023/08/27 04:03:50;;;;;;;19.40;17.30;;;;;;;-146.25;100.00;52301.28;2079918;28;27186;-66
2023/08/27 04:04:52;;;;;;;16.63;14.45;;;;;;;-146.25;100.00;52264.78;2072797;28;23099;-66
2023/08/27 04:05:54;;;;;;;19.58;15.32;;;;;;;-146.25;100.00;52285.06;2080769;28;20046;-65
2023/08/27 04:06:55;;;;;;;17.25;15.45;;;;;;;-146.25;100.00;52270.88;2073579;28;20956;-66
2023/08/27 04:07:57;;;;;;;15.20;13.65;;;;;;;-146.25;100.00;52301.28;2079630;28;34338;-66
2023/08/27 04:08:59;;;;;;;16.42;13.70;;;;;;;-146.25;100.00;52319.53;2080436;28;20915;-66
2023/08/27 04:10:01;;;;;;;14.70;13.30;;;;;;;-146.25;100.00;52276.97;2071988;28;20062;-66
2023/08/27 04:11:04;;;;;;;15.48;13.85;;;;;;;-146.25;100.00;52307.38;2080470;28;20135;-66
2023/08/27 04:12:06;;;;;;;18.13;16.23;;;;;;;-146.25;100.00;52281.00;2064088;28;20039;-66
2023/08/27 04:13:08;;;;;;;18.55;14.70;;;;;;;-146.25;100.00;52307.38;2064514;28;20039;-66
2023/08/27 04:14:10;;;;;;;16.08;14.40;;;;;;;-146.25;100.00;52297.22;2080370;28;20759;-66
2023/08/27 04:15:12;;;;;;;16.55;14.88;;;;;;;-146.25;100.00;52303.31;2079747;28;35044;-66
2023/08/27 04:16:14;;;;;;;16.95;14.57;;;;;;;-146.25;100.00;52317.50;2080380;28;20108;-66
2023/08/27 04:17:15;;;;;;;17.10;15.43;;;;;;;-146.25;100.00;52299.25;2080865;28;20941;-65
2023/08/27 04:18:17;;;;;;;15.48;13.68;;;;;;;-146.25;100.00;52301.28;2080214;28;20963;-66
2023/08/27 04:19:19;;;;;;;17.23;14.02;;;;;;;-146.25;100.00;52313.44;2080392;28;20038;-65
2023/08/27 04:20:21;;;;;;;15.00;13.40;;;;;;;-146.25;100.00;52291.16;2072258;28;28024;-65
2023/08/27 04:21:23;;;;;;;17.65;15.85;;;;;;;-146.25;100.00;52299.25;2071790;28;30037;-66
2023/08/27 04:22:25;;;;;;;16.42;14.68;;;;;;;-146.25;100.00;52299.25;2072215;28;20050;-66
2023/08/27 04:23:27;;;;;;;16.48;14.50;;;;;;;-146.25;100.00;52305.34;2080196;28;27915;-66
2023/08/27 04:24:29;;;;;;;15.05;13.55;;;;;;;-146.25;100.00;52303.31;2071972;28;25625;-66
2023/08/27 04:25:31;;;;;;;16.38;14.20;;;;;;;-146.25;100.00;52297.22;2072369;28;20153;-66
2023/08/27 04:26:33;;;;;;;13.85;12.45;;;;;;;-146.25;100.00;52307.38;2080187;28;23722;-65
2023/08/27 04:27:34;;;;;;;14.60;13.05;;;;;;;-146.25;100.00;52281.00;2080383;28;20918;-65
2023/08/27 04:28:37;;;;;;;17.40;14.07;;;;;;;-146.25;100.00;52274.94;2079738;28;20034;-65
2023/08/27 04:29:41;;;;;;;16.00;14.40;;;;;;;-146.25;100.00;52303.31;2080144;28;20046;-66
2023/08/27 04:30:43;;;;;;;17.88;15.27;;;;;;;-146.25;100.00;52305.34;2072479;28;21078;-66
2023/08/27 04:31:44;;;;;;;17.40;15.60;;;;;;;-146.25;100.00;52313.44;2079820;28;32558;-66
2023/08/27 04:32:46;;;;;;;16.30;14.40;;;;;;;-146.25;100.00;52325.63;2080584;28;20050;-66
2023/08/27 04:33:48;;;;;;;15.95;14.45;;;;;;;-146.25;100.00;52260.72;2079695;28;23779;-66
2023/08/27 04:34:50;;;;;;;17.67;14.48;;;;;;;-146.25;100.00;52299.25;2080838;28;25404;-67
2023/08/27 04:35:52;;;;;;;15.98;14.32;;;;;;;-146.25;100.00;52315.47;2080835;28;20191;-66
2023/08/27 04:36:56;;;;;;;15.13;13.02;;;;;;;-146.25;100.00;52333.72;2080304;28;20068;-66
2023/08/27 04:37:57;;;;;;;15.98;14.25;;;;;;;-146.25;100.00;52317.50;2072482;28;20051;-66
2023/08/27 04:39:00;;;;;;;13.57;12.20;;;;;;;-146.25;100.00;52337.78;2080584;28;20089;-66
2023/08/27 04:40:03;;;;;;;16.27;12.50;;;;;;;-146.25;100.00;52299.25;2088138;28;28837;-66
2023/08/27 04:41:05;;;;;;;13.30;11.80;;;;;;;-146.25;100.00;52331.69;2080963;28;20120;-66
2023/08/27 04:42:09;;;;;;;17.38;14.48;;;;;;;-146.25;100.00;52295.19;2080297;28;20179;-66
2023/08/27 04:43:11;;;;;;;16.98;14.93;;;;;;;-146.25;100.00;52323.59;2088107;28;20041;-66